Sanger, California
Current Conditions -  °F | °C
As of 11:53 PM on Friday 19 Dec 2014 (Local Time) from KFAT Reporting Station
Overcast Overcast  
Wind Chill: 53°   Ceiling: 9000
Heat Index: 53°   Visibility: 10mi
Dew Point: 48°   Wind: 3mph
Humidity: 83%   Direction: 60°ENE
Pressure: 30.21"   Gusts: NA
Location:  36.71°N, 119.55°W
Report Text: KFAT 200753Z 06003KT 10SM BKN090 OVC110 12/09 A3021 RMK AO2 SLP228 T01170089 401440061
Loading
Personal Weather Stations






























Interactive Weather Map New forecast layout! Learn more

10-Day Weather Forecast

Advertisements
Track Severe Weather on mobile